createdAt,value
2023-02-22T00:01:36.628Z,101479.03
2023-02-22T00:04:16.169Z,101583.03
2023-02-22T00:06:49.371Z,101554.59
2023-02-22T00:09:20.659Z,101560.03
2023-02-22T00:11:53.786Z,101579.63
2023-02-22T00:14:32.457Z,101581.31
2023-02-22T00:17:13.789Z,101545.75
2023-02-22T00:19:46.527Z,101471.88
2023-02-22T00:22:20.171Z,101539.94
2023-02-22T00:24:48.386Z,101504.16
2023-02-22T00:27:15.030Z,101474.53
2023-02-22T00:29:58.326Z,101577.69
2023-02-22T00:32:33.694Z,101550.59
2023-02-22T00:35:08.412Z,101510.94
2023-02-22T00:37:41.859Z,101553.25
2023-02-22T00:40:31.351Z,101583.84
2023-02-22T00:43:11.211Z,101561.00
2023-02-22T00:45:41.686Z,101568.59
2023-02-22T00:48:09.698Z,101529.66
2023-02-22T00:50:46.416Z,101563.41
2023-02-22T00:53:26.500Z,101583.59
2023-02-22T00:55:56.161Z,101556.63
2023-02-22T01:01:07.294Z,101559.84
2023-02-22T01:03:35.336Z,101533.19
2023-02-22T01:06:11.287Z,101578.59
2023-02-22T01:08:47.383Z,101552.03
2023-02-22T01:11:19.815Z,101560.00
2023-02-22T01:13:49.152Z,101570.00
2023-02-22T01:16:15.727Z,101501.66
2023-02-22T01:18:42.297Z,101563.81
2023-02-22T01:21:15.546Z,101566.59
2023-02-22T01:23:45.176Z,101552.47
2023-02-22T01:26:12.054Z,101524.88
2023-02-22T01:28:39.379Z,101567.47
2023-02-22T01:31:12.670Z,101487.25
2023-02-22T01:33:42.165Z,101537.69
2023-02-22T01:36:11.791Z,101524.53
2023-02-22T01:38:39.217Z,101482.63
2023-02-22T01:41:09.218Z,101493.53
2023-02-22T01:43:35.980Z,101548.69
2023-02-22T01:46:24.352Z,101542.53
2023-02-22T01:48:56.265Z,101511.44
2023-02-22T01:51:37.540Z,101493.00
2023-02-22T01:54:12.088Z,101541.09
2023-02-22T01:56:40.619Z,101529.25
2023-02-22T01:59:12.717Z,101519.84
2023-02-22T02:01:43.030Z,101508.47
2023-02-22T02:04:26.260Z,101507.25
2023-02-22T02:07:06.189Z,101463.63
2023-02-22T02:09:47.235Z,101503.78
2023-02-22T02:12:18.806Z,101439.44
2023-02-22T02:14:45.618Z,101514.63
2023-02-22T02:17:37.263Z,101508.44
2023-02-22T02:20:14.323Z,101507.50
2023-02-22T02:23:01.015Z,101505.56
2023-02-22T02:26:09.664Z,101508.34
2023-02-22T02:29:05.675Z,101507.28
2023-02-22T02:32:03.348Z,101502.47
2023-02-22T02:34:34.556Z,101496.28
2023-02-22T02:37:11.505Z,101448.78
2023-02-22T02:40:06.594Z,101491.56
2023-02-22T02:42:43.207Z,101482.38
2023-02-22T02:45:32.100Z,101413.38
2023-02-22T02:48:08.462Z,101484.81
2023-02-22T02:50:46.214Z,101466.56
2023-02-22T02:53:17.208Z,101462.81
2023-02-22T02:55:45.651Z,101457.75
2023-02-22T02:58:27.105Z,101473.94
2023-02-22T03:00:59.073Z,101485.56
2023-02-22T03:03:44.504Z,101495.47
2023-02-22T03:06:30.501Z,101484.59
2023-02-22T03:09:52.616Z,101460.41
2023-02-22T03:13:11.090Z,101484.47
2023-02-22T03:16:03.244Z,101471.53
2023-02-22T03:18:43.184Z,101470.59
2023-02-22T03:21:30.495Z,101399.38
2023-02-22T03:24:09.999Z,101475.66
2023-02-22T03:26:53.970Z,101484.34
2023-02-22T03:29:26.293Z,101461.13
2023-02-22T03:32:01.412Z,101475.97
2023-02-22T03:34:35.988Z,101490.59
2023-02-22T03:37:40.733Z,101491.19
2023-02-22T03:40:16.874Z,101490.06
2023-02-22T03:42:55.604Z,101473.88
2023-02-22T03:45:35.833Z,101476.78
2023-02-22T03:48:29.216Z,101493.09
2023-02-22T03:51:01.399Z,101490.34
2023-02-22T03:53:45.600Z,101402.22
2023-02-22T03:56:23.008Z,101489.88
2023-02-22T03:58:59.774Z,101478.75
2023-02-22T04:02:00.577Z,101467.16
2023-02-22T04:04:22.307Z,101459.91
2023-02-22T04:06:49.880Z,101445.63
2023-02-22T04:09:22.793Z,101383.00
2023-02-22T04:11:51.309Z,101477.53
2023-02-22T04:14:24.072Z,101480.78
2023-02-22T04:16:58.372Z,101467.63
2023-02-22T04:19:25.007Z,101485.31
2023-02-22T04:21:51.710Z,101500.75
2023-02-22T04:24:18.353Z,101455.53
2023-02-22T04:26:45.101Z,101446.81
2023-02-22T04:29:11.697Z,101492.53
2023-02-22T04:31:39.641Z,101499.31
2023-02-22T04:34:06.608Z,101454.09
2023-02-22T04:36:38.950Z,101502.19
2023-02-22T04:39:05.594Z,101492.16
2023-02-22T04:41:35.467Z,101421.63
2023-02-22T04:44:02.456Z,101486.94
2023-02-22T04:46:29.301Z,101471.22
2023-02-22T04:49:10.910Z,101473.38
2023-02-22T04:51:42.689Z,101479.28
2023-02-22T04:54:13.111Z,101457.16
2023-02-22T04:56:43.378Z,101477.34
2023-02-22T04:59:21.094Z,101468.91
2023-02-22T05:01:55.759Z,101476.41
2023-02-22T05:04:30.972Z,101479.56
2023-02-22T05:07:08.599Z,101451.84
2023-02-22T05:09:38.065Z,101495.16
2023-02-22T05:12:12.520Z,101470.22
2023-02-22T05:14:43.838Z,101484.28
2023-02-22T05:17:21.006Z,101455.16
2023-02-22T05:19:51.363Z,101462.53
2023-02-22T05:22:27.196Z,101469.28
2023-02-22T05:25:03.157Z,101486.47
2023-02-22T05:27:29.705Z,101463.63
2023-02-22T05:29:56.521Z,101431.81
2023-02-22T05:32:23.114Z,101492.78
2023-02-22T05:34:58.417Z,101478.75
2023-02-22T05:37:34.332Z,101427.25
2023-02-22T05:40:01.186Z,101480.72
2023-02-22T05:42:30.818Z,101476.59
2023-02-22T05:45:02.447Z,101473.66
2023-02-22T05:47:29.608Z,101454.94
2023-02-22T05:50:00.809Z,101436.69
2023-02-22T05:52:31.616Z,101338.50
2023-02-22T05:54:58.773Z,101410.69
2023-02-22T05:57:32.166Z,101436.91
2023-02-22T06:00:00.880Z,101461.69
2023-02-22T06:02:27.481Z,101468.63
2023-02-22T06:04:57.048Z,101470.31
2023-02-22T06:07:23.621Z,101477.31
2023-02-22T06:09:50.178Z,101475.88
2023-02-22T06:12:25.217Z,101444.19
2023-02-22T06:14:51.699Z,101485.31
2023-02-22T06:17:20.510Z,101464.38
2023-02-22T06:19:51.571Z,101458.94
2023-02-22T06:22:25.072Z,101341.66
2023-02-22T06:24:55.186Z,101487.94
2023-02-22T06:27:30.954Z,101484.78
2023-02-22T06:29:57.584Z,101499.78
2023-02-22T06:32:27.805Z,101441.00
2023-02-22T06:34:54.744Z,101469.28
2023-02-22T06:37:21.672Z,101497.72
2023-02-22T06:39:48.806Z,101363.94
2023-02-22T06:42:15.592Z,101473.63
2023-02-22T06:44:45.170Z,101503.88
2023-02-22T06:47:11.858Z,101508.88
2023-02-22T06:49:40.385Z,101503.94
2023-02-22T06:52:08.269Z,101512.38
2023-02-22T06:54:45.052Z,101523.38
2023-02-22T06:57:17.221Z,101509.22
2023-02-22T06:59:45.846Z,101483.88
2023-02-22T07:02:14.709Z,101494.75
2023-02-22T07:04:46.355Z,101516.50
2023-02-22T07:07:12.975Z,101515.16
2023-02-22T07:09:41.707Z,101497.38
2023-02-22T07:12:23.244Z,101494.72
2023-02-22T07:14:58.815Z,101511.25
2023-02-22T07:17:28.409Z,101515.28
2023-02-22T07:20:02.642Z,101513.31
2023-02-22T07:22:39.022Z,101523.94
2023-02-22T07:25:11.537Z,101507.50
2023-02-22T07:27:47.197Z,101509.69
2023-02-22T07:30:37.670Z,101511.16
2023-02-22T07:33:09.978Z,101517.19
2023-02-22T07:35:39.238Z,101526.09
2023-02-22T07:38:13.761Z,101513.66
2023-02-22T07:40:47.234Z,101462.97
2023-02-22T07:43:17.739Z,101529.59
2023-02-22T07:45:48.524Z,101483.56
2023-02-22T07:48:18.288Z,101502.19
2023-02-22T07:50:45.402Z,101522.75
2023-02-22T07:56:11.592Z,101495.94
2023-02-22T07:58:38.637Z,101359.88
2023-02-22T08:01:10.260Z,101501.09
2023-02-22T08:03:38.195Z,101515.28
2023-02-22T08:06:08.335Z,101491.00
2023-02-22T08:08:35.413Z,101517.72
2023-02-22T08:11:02.622Z,101517.72
2023-02-22T08:13:30.060Z,101495.84
2023-02-22T08:15:56.789Z,101522.31
2023-02-22T08:18:32.754Z,101520.50
2023-02-22T08:21:09.462Z,101510.34
2023-02-22T08:23:42.207Z,101494.75
2023-02-22T08:26:10.992Z,101522.03
2023-02-22T08:28:51.845Z,101498.59
2023-02-22T08:31:30.888Z,101526.78
2023-02-22T08:33:58.110Z,101518.91
2023-02-22T08:36:27.279Z,101525.69
2023-02-22T08:38:55.415Z,101521.19
2023-02-22T08:41:30.113Z,101485.56
2023-02-22T08:43:56.745Z,101512.63
2023-02-22T08:46:31.236Z,101482.78
2023-02-22T08:48:57.766Z,101495.22
2023-02-22T08:51:27.682Z,101482.69
2023-02-22T08:53:54.928Z,101468.03
2023-02-22T08:56:23.827Z,101505.88
2023-02-22T08:58:50.608Z,101483.59
2023-02-22T09:01:24.807Z,101496.66
2023-02-22T09:03:59.458Z,101491.69
2023-02-22T09:06:33.091Z,101511.41
2023-02-22T09:09:06.869Z,101473.72
2023-02-22T09:11:41.821Z,101484.47
2023-02-22T09:14:14.536Z,101497.66
2023-02-22T09:16:50.057Z,101492.09
2023-02-22T09:19:18.166Z,101492.34
2023-02-22T09:22:04.091Z,101425.03
2023-02-22T09:24:38.419Z,101507.09
2023-02-22T09:27:14.954Z,101508.06
2023-02-22T09:29:41.847Z,101498.97
2023-02-22T09:32:08.687Z,101503.91
2023-02-22T09:34:43.723Z,101455.78
2023-02-22T09:37:11.932Z,101496.06
2023-02-22T09:39:42.116Z,101501.31
2023-02-22T09:42:13.629Z,101393.06
2023-02-22T09:44:55.533Z,101438.03
2023-02-22T09:47:48.918Z,101501.47
2023-02-22T09:50:29.334Z,101491.41
2023-02-22T09:53:06.072Z,101351.88
2023-02-22T09:56:13.265Z,101500.28
2023-02-22T09:58:45.934Z,101499.38
2023-02-22T10:01:52.731Z,101442.63
2023-02-22T10:04:34.976Z,101299.28
2023-02-22T10:07:26.365Z,101479.91
2023-02-22T10:10:06.752Z,101470.63
2023-02-22T10:12:58.108Z,101454.78
2023-02-22T10:15:49.057Z,101481.13
2023-02-22T10:18:44.703Z,101491.28
2023-02-22T10:21:29.383Z,101397.06
2023-02-22T10:24:48.164Z,101484.78
2023-02-22T10:27:32.167Z,101485.44
2023-02-22T10:30:23.418Z,101462.00
2023-02-22T10:33:32.748Z,101483.94
2023-02-22T10:36:23.041Z,101482.00
2023-02-22T10:38:55.259Z,101480.06
2023-02-22T10:41:28.511Z,101431.50
2023-02-22T10:44:08.897Z,101278.19
2023-02-22T10:46:39.880Z,101416.03
2023-02-22T10:49:09.784Z,101435.09
2023-02-22T10:51:48.202Z,101457.97
2023-02-22T10:54:21.331Z,101466.16
2023-02-22T10:56:58.047Z,101452.84
2023-02-22T10:59:33.664Z,101447.78
2023-02-22T11:02:33.910Z,101461.03
2023-02-22T11:05:04.452Z,101434.69
2023-02-22T11:07:40.785Z,101412.38
2023-02-22T11:10:14.491Z,101412.44
2023-02-22T11:12:58.144Z,101429.50
2023-02-22T11:15:32.070Z,101378.19
2023-02-22T11:18:10.539Z,101401.63
2023-02-22T11:20:40.041Z,101428.31
2023-02-22T11:23:13.819Z,101381.22
2023-02-22T11:25:42.714Z,101400.94
2023-02-22T11:28:31.072Z,101386.63
2023-02-22T11:31:18.873Z,101404.81
2023-02-22T11:34:29.473Z,101347.78
2023-02-22T11:37:36.697Z,101400.59
2023-02-22T11:40:35.686Z,101333.63
2023-02-22T11:43:19.977Z,101360.88
2023-02-22T11:46:26.289Z,101384.63
2023-02-22T11:49:09.748Z,101245.03
2023-02-22T11:52:13.826Z,101384.97
2023-02-22T11:54:54.278Z,101373.59
2023-02-22T11:57:41.186Z,101371.75
2023-02-22T12:00:32.944Z,101379.63
2023-02-22T12:03:23.422Z,101376.22
2023-02-22T12:06:08.369Z,101323.69
2023-02-22T12:09:02.887Z,101145.22
2023-02-22T12:11:50.909Z,101370.19
2023-02-22T12:14:36.564Z,101286.13
2023-02-22T12:17:23.597Z,101203.53
2023-02-22T12:19:56.812Z,101360.22
2023-02-22T12:22:39.226Z,101308.38
2023-02-22T12:25:32.134Z,101344.06
2023-02-22T12:28:24.301Z,101347.03
2023-02-22T12:31:18.758Z,101246.53
2023-02-22T12:34:08.084Z,101340.44
2023-02-22T12:36:57.131Z,101329.47
2023-02-22T12:39:40.929Z,101344.94
2023-02-22T12:42:16.968Z,101357.31
2023-02-22T12:45:05.090Z,101254.41
2023-02-22T12:47:51.129Z,101347.31
2023-02-22T12:50:44.833Z,101294.78
2023-02-22T12:53:26.884Z,101331.44
2023-02-22T12:56:30.924Z,101321.59
2023-02-22T12:59:23.178Z,101303.06
2023-02-22T13:02:05.033Z,101333.69
2023-02-22T13:04:37.034Z,101307.13
2023-02-22T13:07:35.857Z,101331.75
2023-02-22T13:10:41.704Z,101332.56
2023-02-22T13:13:45.446Z,101269.22
2023-02-22T13:16:28.093Z,101333.56
2023-02-22T13:19:28.396Z,101324.72
2023-02-22T13:22:30.561Z,101288.44
2023-02-22T13:25:35.845Z,101199.94
2023-02-22T13:28:31.334Z,101316.28
2023-02-22T13:31:07.427Z,101300.00
2023-02-22T13:33:51.674Z,101317.41
2023-02-22T13:36:38.762Z,101312.34
2023-02-22T13:39:39.393Z,101300.25
2023-02-22T13:42:48.896Z,101297.34
2023-02-22T13:46:08.466Z,101306.47
2023-02-22T13:52:13.036Z,101304.06
2023-02-22T13:54:52.689Z,101303.38
2023-02-22T13:57:38.936Z,101289.03
2023-02-22T14:00:17.489Z,101288.19
2023-02-22T14:03:34.359Z,101305.06
2023-02-22T14:06:01.494Z,101297.34
2023-02-22T14:08:28.101Z,101298.59
2023-02-22T14:11:04.570Z,101230.06
2023-02-22T14:14:12.268Z,101296.34
2023-02-22T14:17:22.161Z,101297.03
2023-02-22T14:20:04.459Z,101297.59
2023-02-22T14:22:31.178Z,101176.13
2023-02-22T14:25:01.134Z,101259.69
2023-02-22T14:27:40.196Z,101274.69
2023-02-22T14:30:30.974Z,101272.63
2023-02-22T14:32:57.948Z,101282.28
2023-02-22T14:35:49.908Z,101258.97
2023-02-22T14:38:22.105Z,101211.09
2023-02-22T14:40:49.594Z,101287.91
2023-02-22T14:43:25.873Z,101274.69
2023-02-22T14:46:13.101Z,101284.69
2023-02-22T14:48:51.466Z,101284.81
2023-02-22T14:51:53.320Z,101289.59
2023-02-22T14:54:36.905Z,101229.50
2023-02-22T14:57:18.516Z,101292.53
2023-02-22T14:59:56.723Z,101274.69
2023-02-22T15:02:26.169Z,101280.72
2023-02-22T15:04:59.450Z,101287.34
2023-02-22T15:07:30.619Z,101263.19
2023-02-22T15:10:28.208Z,101284.25
2023-02-22T15:13:19.617Z,101202.41
2023-02-22T15:16:13.833Z,101276.38
2023-02-22T15:18:48.891Z,101265.72
2023-02-22T15:21:30.273Z,101259.81
2023-02-22T15:24:04.840Z,101282.97
2023-02-22T15:26:37.305Z,101272.44
2023-02-22T15:29:20.958Z,101276.09
2023-02-22T15:31:53.092Z,101275.38
2023-02-22T15:34:30.506Z,101271.59
2023-02-22T15:37:08.140Z,101261.94
2023-02-22T15:39:34.886Z,101253.34
2023-02-22T15:42:20.957Z,101262.66
2023-02-22T15:44:49.292Z,101211.09
2023-02-22T15:47:35.015Z,101238.63
2023-02-22T15:50:26.627Z,101255.59
2023-02-22T15:53:02.299Z,101194.09
2023-02-22T15:55:36.287Z,101253.94
2023-02-22T15:58:26.349Z,101262.22
2023-02-22T16:01:25.577Z,101225.72
2023-02-22T16:04:00.551Z,101248.59
2023-02-22T16:06:41.666Z,101239.56
2023-02-22T16:09:25.601Z,101237.34
2023-02-22T16:12:17.451Z,101219.34
2023-02-22T16:14:45.072Z,101228.50
2023-02-22T16:17:55.956Z,101246.75
2023-02-22T16:20:32.653Z,101215.47
2023-02-22T16:22:59.371Z,101247.88
2023-02-22T16:25:39.799Z,101193.00
2023-02-22T16:31:25.239Z,101237.34
2023-02-22T16:33:56.082Z,101251.97
2023-02-22T16:39:38.399Z,101245.63
2023-02-22T16:42:31.446Z,101118.00
2023-02-22T16:45:18.932Z,101194.38
2023-02-22T16:47:57.337Z,101247.06
2023-02-22T16:50:32.749Z,101251.09
2023-02-22T16:53:12.155Z,101249.44
2023-02-22T16:56:19.906Z,101252.41
2023-02-22T16:59:04.221Z,101255.91
2023-02-22T17:01:39.618Z,101245.94
2023-02-22T17:04:24.246Z,101242.97
2023-02-22T17:06:54.974Z,101235.25
2023-02-22T17:09:30.622Z,101256.00
2023-02-22T17:12:05.414Z,101209.34
2023-02-22T17:14:44.486Z,101238.72
2023-02-22T17:17:17.017Z,101258.97
2023-02-22T17:19:43.567Z,101276.63
2023-02-22T17:22:18.914Z,101198.28
2023-02-22T17:24:51.764Z,101276.38
2023-02-22T17:27:21.363Z,101271.31
2023-02-22T17:29:51.755Z,101256.16
2023-02-22T17:32:20.529Z,101267.09
2023-02-22T17:34:47.204Z,101280.31
2023-02-22T17:37:15.210Z,101270.75
2023-02-22T17:39:41.871Z,101273.00
2023-02-22T17:42:12.049Z,101279.47
2023-02-22T17:44:40.107Z,101196.13
2023-02-22T17:47:10.331Z,101272.72
2023-02-22T17:49:46.593Z,101224.81
2023-02-22T17:52:20.580Z,101215.94
2023-02-22T17:55:02.023Z,101236.44
2023-02-22T17:57:36.675Z,101230.56
2023-02-22T18:00:12.742Z,101274.97
2023-02-22T18:02:51.291Z,101262.63
2023-02-22T18:05:26.671Z,101227.63
2023-02-22T18:07:56.204Z,101259.81
2023-02-22T18:10:23.206Z,101266.97
2023-02-22T18:12:57.922Z,101225.25
2023-02-22T18:15:58.774Z,101254.88
2023-02-22T18:18:39.917Z,101222.69
2023-02-22T18:21:22.393Z,101164.28
2023-02-22T18:23:50.151Z,101251.22
2023-02-22T18:26:27.608Z,101245.28
2023-02-22T18:29:02.822Z,101229.44
2023-02-22T18:31:29.684Z,101231.66
2023-02-22T18:33:57.644Z,101245.16
2023-02-22T18:36:25.812Z,101197.94
2023-02-22T18:38:54.280Z,101237.56
2023-02-22T18:41:25.855Z,101240.53
2023-02-22T18:43:57.819Z,101240.38
2023-02-22T18:46:32.196Z,101201.03
2023-02-22T18:48:59.888Z,101109.34
2023-02-22T18:51:34.525Z,101250.19
2023-02-22T18:54:12.377Z,101243.31
2023-02-22T18:56:40.367Z,101193.84
2023-02-22T18:59:19.439Z,101229.97
2023-02-22T19:01:49.183Z,101249.63
2023-02-22T19:04:18.305Z,101221.81
2023-02-22T19:07:06.365Z,101247.94
2023-02-22T19:09:37.614Z,101205.22
2023-02-22T19:12:04.902Z,101239.22
2023-02-22T19:14:31.459Z,101169.59
2023-02-22T19:17:02.754Z,101248.63
2023-02-22T19:19:32.636Z,101237.09
2023-02-22T19:22:01.584Z,101167.28
2023-02-22T19:24:28.860Z,101247.91
2023-02-22T19:27:04.487Z,101212.66
2023-02-22T19:29:33.569Z,101223.47
2023-02-22T19:32:00.989Z,101253.25
2023-02-22T19:34:33.866Z,101200.28
2023-02-22T19:37:10.302Z,101204.63
2023-02-22T19:39:38.926Z,101226.28
2023-02-22T19:42:11.266Z,101214.22
2023-02-22T19:44:38.126Z,101249.63
2023-02-22T19:47:10.100Z,101246.53
2023-02-22T19:49:44.620Z,101255.91
2023-02-22T19:52:11.210Z,101217.84
2023-02-22T19:54:38.232Z,101182.47
2023-02-22T19:57:11.823Z,101218.41
2023-02-22T19:59:43.782Z,101242.03
2023-02-22T20:02:15.082Z,101216.06
2023-02-22T20:04:58.245Z,101212.13
2023-02-22T20:07:52.942Z,101215.06
2023-02-22T20:10:28.744Z,101262.25
2023-02-22T20:12:55.492Z,101265.59
2023-02-22T20:15:47.003Z,101244.66
2023-02-22T20:18:20.303Z,101252.09
2023-02-22T20:20:54.325Z,101259.97
2023-02-22T20:23:25.566Z,101233.53
2023-02-22T20:26:03.100Z,101267.25
2023-02-22T20:28:45.582Z,101256.03
2023-02-22T20:31:26.107Z,101218.09
2023-02-22T20:33:57.991Z,101257.16
2023-02-22T20:36:25.655Z,101262.19
2023-02-22T20:39:15.054Z,101072.09
2023-02-22T20:41:45.175Z,101198.13
2023-02-22T20:44:22.422Z,101247.16
2023-02-22T20:46:55.557Z,101189.94
2023-02-22T20:49:30.088Z,101238.28
2023-02-22T20:51:56.863Z,101257.69
2023-02-22T20:54:25.226Z,101249.38
2023-02-22T20:56:53.595Z,101264.00
2023-02-22T21:02:54.122Z,101212.44
2023-02-22T21:05:27.855Z,101083.09
2023-02-22T21:08:40.645Z,101184.53
2023-02-22T21:11:30.839Z,101228.25
2023-02-22T21:13:58.237Z,101239.03
2023-02-22T21:16:41.353Z,101222.03
2023-02-22T21:19:10.785Z,101240.41
2023-02-22T21:21:49.922Z,101202.06
2023-02-22T21:24:19.791Z,101245.75
2023-02-22T21:27:18.383Z,101243.09
2023-02-22T21:29:59.898Z,101209.63
2023-02-22T21:32:26.802Z,101233.22
2023-02-22T21:35:01.546Z,101239.00
2023-02-22T21:37:32.720Z,101226.22
2023-02-22T21:40:04.765Z,101214.94
2023-02-22T21:42:49.945Z,101235.19
2023-02-22T21:45:27.037Z,101206.16
2023-02-22T21:48:02.272Z,101132.09
2023-02-22T21:50:44.451Z,101167.63
2023-02-22T21:53:14.272Z,101189.81
2023-02-22T21:55:52.114Z,101140.91
2023-02-22T21:58:39.941Z,101171.03
2023-02-22T22:01:29.025Z,101236.94
2023-02-22T22:04:24.768Z,101165.97
2023-02-22T22:09:45.042Z,101144.25
2023-02-22T22:12:12.582Z,101180.16
2023-02-22T22:14:40.404Z,101150.78
2023-02-22T22:17:14.293Z,101220.50
2023-02-22T22:20:11.056Z,101209.25
2023-02-22T22:22:49.375Z,101218.97
2023-02-22T22:25:53.391Z,101204.88
2023-02-22T22:28:31.261Z,101221.03
2023-02-22T22:31:00.723Z,101190.38
2023-02-22T22:33:32.723Z,101222.41
2023-02-22T22:36:06.733Z,101226.50
2023-02-22T22:38:58.056Z,101177.72
2023-02-22T22:41:28.115Z,101156.84
2023-02-22T22:43:57.567Z,101226.34
2023-02-22T22:46:31.636Z,101217.66
2023-02-22T22:48:58.387Z,101223.84
2023-02-22T22:51:24.898Z,101194.31
2023-02-22T22:53:52.022Z,101210.59
2023-02-22T22:56:38.530Z,101216.38
2023-02-22T22:59:15.768Z,101200.47
2023-02-22T23:01:46.397Z,101189.66
2023-02-22T23:04:19.677Z,101203.34
2023-02-22T23:06:52.049Z,101183.16
2023-02-22T23:09:34.774Z,101217.09
2023-02-22T23:12:18.281Z,101202.63
2023-02-22T23:14:47.305Z,101194.91
2023-02-22T23:17:45.332Z,101205.28
2023-02-22T23:20:21.383Z,101209.88
2023-02-22T23:22:49.102Z,101140.34
2023-02-22T23:25:30.265Z,101205.84
2023-02-22T23:27:57.843Z,101205.16
2023-02-22T23:30:25.234Z,101212.03
2023-02-22T23:33:18.861Z,101155.00
2023-02-22T23:36:03.753Z,101193.78
2023-02-22T23:38:35.001Z,101165.97
2023-02-22T23:41:10.197Z,101169.06
2023-02-22T23:43:40.440Z,101189.03
2023-02-22T23:46:19.580Z,101190.84
2023-02-22T23:49:01.692Z,101124.94
2023-02-22T23:51:46.329Z,101176.78
2023-02-22T23:54:21.201Z,101187.47
2023-02-22T23:56:57.086Z,101110.31
2023-02-22T23:59:29.822Z,101178.50
